Time;durP1;ratioP1;P1;durP2;ratioP2;P2;SDS_P1;SDS_P2;PMS_P1;PMS_P2;Temp;Humidity;BMP_temperature;BMP_pressure;BME280_temperature;BME280_humidity;BME280_pressure;Samples;Min_cycle;Max_cycle;Signal;HPM_P1;HPM_P2
2022/09/30 00:01:53;;;;;;;12.98;9.60;;;;;;;19.76;70.28;99931.76;1770797;81;21290;-78
2022/09/30 00:04:59;;;;;;;13.50;9.55;;;;;;;19.82;70.07;99923.86;1771085;81;21187;-78
2022/09/30 00:08:05;;;;;;;15.13;10.08;;;;;;;19.70;70.59;99927.20;1769679;81;21175;-79
2022/09/30 00:11:18;;;;;;;11.63;9.33;;;;;;;19.86;70.28;99925.89;1769574;81;21180;-79
2022/09/30 00:14:26;;;;;;;15.28;10.25;;;;;;;19.70;70.67;99923.88;1769995;79;21210;-79
2022/09/30 00:17:32;;;;;;;15.75;10.32;;;;;;;19.54;71.56;99927.40;1768774;80;21253;-79
2022/09/30 00:20:38;;;;;;;15.48;11.25;;;;;;;19.46;72.09;99921.67;1768555;81;21246;-79
2022/09/30 00:23:44;;;;;;;17.90;11.22;;;;;;;19.45;72.49;99913.06;1769810;81;21214;-79
2022/09/30 00:26:50;;;;;;;18.95;11.90;;;;;;;19.52;72.65;99914.30;1770014;81;21234;-79
2022/09/30 00:29:57;;;;;;;15.08;10.95;;;;;;;19.51;73.21;99919.55;1770010;81;21161;-79
2022/09/30 00:33:03;;;;;;;16.15;11.57;;;;;;;19.49;73.80;99908.72;1769267;81;21255;-79
2022/09/30 00:36:10;;;;;;;16.12;10.82;;;;;;;19.46;74.68;99918.90;1769972;81;21240;-79
2022/09/30 00:39:15;;;;;;;18.00;11.85;;;;;;;19.52;75.10;99912.36;1769825;81;21177;-79
2022/09/30 00:42:25;;;;;;;19.65;13.70;;;;;;;19.64;75.38;99909.06;1771124;80;21168;-79
2022/09/30 00:45:30;;;;;;;18.87;13.75;;;;;;;19.76;75.59;99916.50;1721851;83;21170;-79
2022/09/30 00:48:39;;;;;;;17.25;12.63;;;;;;;19.78;75.82;99914.34;1776993;80;21229;-79
2022/09/30 00:51:52;;;;;;;18.57;13.95;;;;;;;19.82;76.03;99919.15;1791073;80;21221;-79
2022/09/30 00:54:58;;;;;;;18.48;13.05;;;;;;;19.83;76.38;99918.60;1791676;80;21189;-79
2022/09/30 00:58:03;;;;;;;20.52;13.43;;;;;;;19.90;76.73;99917.89;1722174;83;21198;-79
2022/09/30 01:01:08;;;;;;;19.23;12.65;;;;;;;19.92;77.23;99915.73;1722043;83;21190;-78
2022/09/30 01:04:23;;;;;;;22.95;15.80;;;;;;;20.04;77.42;99916.55;1720913;83;21883;-78
2022/09/30 01:07:31;;;;;;;25.00;15.75;;;;;;;20.07;77.81;99917.96;1722143;83;21194;-79
2022/09/30 01:10:37;;;;;;;30.95;19.05;;;;;;;20.07;78.57;99916.03;1720740;83;21232;-78
2022/09/30 01:13:43;;;;;;;24.85;15.55;;;;;;;20.12;78.80;99913.89;1721054;83;21213;-78
2022/09/30 01:17:13;;;;;;;30.55;17.30;;;;;;;20.05;79.50;99904.34;1721933;83;21761;-79
2022/09/30 01:20:55;;;;;;;24.95;17.05;;;;;;;20.10;79.92;99911.38;1801300;79;21220;-80
2022/09/30 01:24:08;;;;;;;32.23;20.40;;;;;;;20.09;80.43;99905.53;1799828;79;21181;-79
2022/09/30 01:27:25;;;;;;;32.75;19.30;;;;;;;20.15;80.70;99908.69;1800849;79;21161;-78
2022/09/30 01:30:49;;;;;;;28.10;17.37;;;;;;;20.22;80.60;99903.52;1730561;83;21236;-79
2022/09/30 01:34:12;;;;;;;42.20;20.33;;;;;;;20.22;80.79;99902.97;1705613;83;21240;-78
2022/09/30 01:37:28;;;;;;;23.42;16.30;;;;;;;20.17;81.50;99911.21;1730545;83;21190;-78
2022/09/30 01:41:17;;;;;;;37.30;17.02;;;;;;;20.24;81.67;99912.46;1727729;83;21223;-78
2022/09/30 01:44:44;;;;;;;22.98;14.85;;;;;;;20.34;81.61;99898.76;1729477;83;21181;-78
2022/09/30 01:47:59;;;;;;;24.90;14.13;;;;;;;20.40;81.58;99904.69;1730628;83;21193;-78
2022/09/30 01:51:16;;;;;;;22.95;15.50;;;;;;;20.32;82.31;99900.92;1729286;83;21283;-78
2022/09/30 01:54:29;;;;;;;25.50;15.25;;;;;;;20.36;82.34;99906.28;1729677;83;21233;-78
2022/09/30 01:57:41;;;;;;;30.08;17.62;;;;;;;20.44;82.48;99908.66;1729428;83;21194;-80
2022/09/30 02:00:48;;;;;;;35.05;19.87;;;;;;;20.54;82.14;99903.86;1730288;83;21232;-81
2022/09/30 02:04:05;;;;;;;34.83;19.27;;;;;;;20.49;82.48;99901.83;1729464;83;21182;-80
2022/09/30 02:07:21;;;;;;;31.12;17.62;;;;;;;20.53;82.61;99905.80;1730551;83;21174;-80
2022/09/30 02:10:43;;;;;;;31.75;17.82;;;;;;;20.65;82.34;99917.69;1730571;83;21197;-80
2022/09/30 02:14:05;;;;;;;30.27;17.17;;;;;;;20.75;81.82;99919.80;1730112;83;21225;-79
2022/09/30 02:17:27;;;;;;;31.80;17.90;;;;;;;20.80;82.02;99924.04;1729399;83;21216;-80
2022/09/30 02:20:35;;;;;;;38.55;19.95;;;;;;;20.86;81.63;99923.57;1730013;83;21192;-79
2022/09/30 02:23:45;;;;;;;33.18;18.75;;;;;;;20.92;81.68;99928.95;1728922;83;21205;-78
2022/09/30 02:26:45;;;;;;;26.27;16.82;;;;;;;20.76;82.30;99942.86;1730034;83;21193;-78
2022/09/30 02:29:44;;;;;;;31.65;18.62;;;;;;;20.73;82.94;99937.25;1730190;83;21202;-78
2022/09/30 02:32:59;;;;;;;36.70;19.52;;;;;;;20.62;83.53;99926.52;1730367;83;21249;-78
2022/09/30 02:36:09;;;;;;;33.95;18.20;;;;;;;20.72;83.40;99927.23;1730061;83;21232;-79
2022/09/30 02:39:18;;;;;;;;;;;;;;;20.88;82.82;99928.31;1732584;83;21811;-79
2022/09/30 02:42:30;;;;;;;41.63;22.58;;;;;;;20.96;82.44;99927.06;1750092;82;20245;-79
2022/09/30 02:45:34;;;;;;;38.02;20.25;;;;;;;20.93;82.66;99920.89;1730086;83;21752;-78
2022/09/30 02:49:27;;;;;;;34.63;18.40;;;;;;;20.96;82.57;99917.33;1750103;82;21177;-79
2022/09/30 02:52:57;;;;;;;42.13;21.27;;;;;;;21.04;82.16;99914.97;1730245;83;21197;-78
2022/09/30 02:56:14;;;;;;;38.05;21.45;;;;;;;20.92;82.74;99920.61;1750022;82;21196;-79
2022/09/30 02:59:18;;;;;;;32.05;19.87;;;;;;;21.03;82.58;99923.02;1730100;83;21170;-78
2022/09/30 03:02:17;;;;;;;39.27;22.22;;;;;;;21.06;82.26;99923.88;1749462;82;21371;-79
2022/09/30 03:05:24;;;;;;;34.67;21.02;;;;;;;21.08;82.20;99928.66;1729138;83;21236;-78
2022/09/30 03:08:30;;;;;;;34.83;19.85;;;;;;;21.04;82.33;99925.25;1748593;82;21783;-78
2022/09/30 03:11:37;;;;;;;31.90;18.73;;;;;;;21.03;82.53;99925.80;1728711;82;21169;-79
2022/09/30 03:14:42;;;;;;;;;;;;;;;21.06;82.61;99928.61;1752116;82;21228;-78
2022/09/30 03:18:11;;;;;;;30.08;18.82;;;;;;;21.00;82.75;99922.68;1749151;82;20630;-79
2022/09/30 03:21:47;;;;;;;31.35;18.45;;;;;;;21.08;82.45;99924.48;1725516;83;21264;-78
2022/09/30 03:25:20;;;;;;;38.25;22.25;;;;;;;21.06;82.63;99926.66;1738341;82;21236;-79
2022/09/30 03:29:01;;;;;;;34.13;19.25;;;;;;;20.91;83.27;99929.21;1738952;82;21200;-79
2022/09/30 03:32:24;;;;;;;35.75;20.17;;;;;;;21.04;82.98;99927.48;1738510;82;21245;-80
2022/09/30 03:35:46;;;;;;;44.60;23.85;;;;;;;21.06;82.97;99927.22;1703065;82;21221;-79
2022/09/30 03:39:23;;;;;;;36.77;22.80;;;;;;;20.96;83.59;99931.23;1727468;83;21193;-80
2022/09/30 03:42:48;;;;;;;41.18;24.85;;;;;;;21.03;83.54;99935.53;1738688;82;21185;-78
2022/09/30 03:46:00;;;;;;;;;;;;;;;20.97;83.71;99934.30;1746090;82;21177;-78
2022/09/30 03:49:10;;;;;;;40.85;25.30;;;;;;;20.83;84.70;99940.74;1743164;82;20766;-79
2022/09/30 03:52:17;;;;;;;48.48;26.75;;;;;;;20.93;84.53;99940.35;1750266;82;21192;-79
2022/09/30 03:55:22;;;;;;;43.10;24.63;;;;;;;21.12;84.16;99945.09;1749173;82;21236;-78
2022/09/30 03:58:28;;;;;;;45.60;27.40;;;;;;;21.17;83.91;99954.94;1748477;82;21236;-78
2022/09/30 04:01:38;;;;;;;44.35;26.07;;;;;;;21.28;83.58;99962.05;1741355;82;21209;-78
2022/09/30 04:04:44;;;;;;;42.20;25.62;;;;;;;21.32;83.47;99958.53;1739099;82;21279;-79
2022/09/30 04:07:51;;;;;;;41.33;25.57;;;;;;;21.37;83.45;99969.73;1740202;82;21782;-78
2022/09/30 04:10:57;;;;;;;39.27;24.27;;;;;;;21.51;83.17;99963.25;1740607;82;21181;-78
2022/09/30 04:14:02;;;;;;;39.55;24.10;;;;;;;21.55;82.79;99963.04;1740840;82;21197;-78
2022/09/30 04:17:09;;;;;;;36.20;22.17;;;;;;;21.63;82.64;99977.87;1711365;84;21216;-78
2022/09/30 04:20:16;;;;;;;44.83;24.47;;;;;;;21.58;82.72;99979.20;1725094;83;21208;-78
2022/09/30 04:23:22;;;;;;;54.83;27.77;;;;;;;21.71;82.29;99971.59;1739805;82;21760;-78
2022/09/30 04:26:24;;;;;;;40.80;24.32;;;;;;;21.73;82.34;99984.69;1738972;82;21247;-78
2022/09/30 04:29:30;;;;;;;45.38;25.97;;;;;;;21.89;81.40;100001.90;1726088;82;21215;-79
2022/09/30 04:32:41;;;;;;;32.35;22.32;;;;;;;21.86;81.83;100007.42;1739334;82;21202;-79
2022/09/30 04:35:47;;;;;;;33.35;19.90;;;;;;;21.88;81.83;100009.97;1709077;84;21770;-79
2022/09/30 04:38:52;;;;;;;33.75;22.67;;;;;;;21.91;81.54;99996.91;1740069;82;21267;-79
2022/09/30 04:41:57;;;;;;;35.95;20.40;;;;;;;21.85;81.80;99990.43;1740868;82;21212;-79
2022/09/30 04:45:04;;;;;;;33.45;22.58;;;;;;;21.84;81.81;99976.23;1725536;82;21278;-79
2022/09/30 04:48:10;;;;;;;32.28;20.50;;;;;;;21.86;81.56;99971.23;1714421;83;21222;-79
2022/09/30 04:51:16;;;;;;;28.90;16.87;;;;;;;22.03;80.65;99968.94;1742847;82;21490;-79
2022/09/30 04:54:21;;;;;;;27.32;16.35;;;;;;;22.05;80.08;99964.78;1742630;82;21778;-79
2022/09/30 04:57:26;;;;;;;32.03;16.52;;;;;;;21.99;80.15;99978.36;1743789;82;21172;-79
2022/09/30 05:00:32;;;;;;;27.13;16.32;;;;;;;21.95;80.34;99998.07;1745551;81;21185;-79
2022/09/30 05:03:38;;;;;;;21.62;14.83;;;;;;;21.85;80.75;99993.22;1726434;83;21199;-79
2022/09/30 05:06:43;;;;;;;15.65;11.70;;;;;;;21.98;80.24;99980.86;1736988;82;21205;-79
2022/09/30 05:09:49;;;;;;;22.07;16.23;;;;;;;22.05;79.81;99989.00;1736527;82;21209;-79
2022/09/30 05:12:55;;;;;;;27.87;17.62;;;;;;;22.09;79.53;100006.88;1716591;82;21185;-79
2022/09/30 05:16:00;;;;;;;22.58;17.23;;;;;;;22.12;79.35;100014.77;1709710;82;21221;-79
2022/09/30 05:19:07;;;;;;;32.48;17.92;;;;;;;22.24;78.90;100020.18;1774001;81;21287;-79
2022/09/30 05:22:13;;;;;;;34.50;18.50;;;;;;;22.24;78.66;100037.73;1719668;82;21236;-79
2022/09/30 05:25:19;;;;;;;27.48;18.27;;;;;;;22.16;79.15;100046.53;1713123;83;21193;-79
2022/09/30 05:28:24;;;;;;;34.45;18.60;;;;;;;22.11;79.32;100065.45;1713322;83;21220;-79
2022/09/30 06:54:05;;;;;;;10.53;3.50;;;;;;;17.22;100.00;100097.59;1746686;79;28932;-78
2022/09/30 06:57:10;;;;;;;8.55;3.33;;;;;;;17.18;100.00;100088.59;1762381;80;21164;-79
2022/09/30 07:00:18;;;;;;;6.20;2.42;;;;;;;17.15;100.00;100092.64;1746629;80;21698;-78
2022/09/30 07:03:31;;;;;;;6.62;2.50;;;;;;;17.07;100.00;100088.22;1733671;80;21751;-79
2022/09/30 07:06:37;;;;;;;5.10;1.98;;;;;;;17.26;100.00;100082.77;1745982;80;21211;-79
2022/09/30 07:09:42;;;;;;;2.75;1.80;;;;;;;17.22;100.00;100089.81;1714350;82;21195;-78
2022/09/30 07:12:48;;;;;;;2.98;2.05;;;;;;;17.22;100.00;100085.16;1710590;82;21771;-79
2022/09/30 07:15:55;;;;;;;3.33;1.80;;;;;;;17.36;100.00;100092.77;1707176;82;22022;-78
2022/09/30 07:19:03;;;;;;;2.10;1.73;;;;;;;17.49;100.00;100088.52;1716633;82;21180;-80
2022/09/30 07:22:27;;;;;;;1.90;1.30;;;;;;;17.57;100.00;100082.70;1722617;82;21633;-78
2022/09/30 07:25:32;;;;;;;2.77;1.20;;;;;;;17.63;100.00;100088.69;1717929;81;21174;-78
2022/09/30 07:28:40;;;;;;;2.15;1.60;;;;;;;17.72;100.00;100089.25;1724155;81;21189;-79
2022/09/30 07:31:45;;;;;;;4.40;1.40;;;;;;;17.86;100.00;100099.67;1725704;81;21190;-79
2022/09/30 07:34:52;;;;;;;2.45;1.62;;;;;;;18.11;100.00;100101.86;1712165;81;21163;-78
2022/09/30 07:37:59;;;;;;;3.75;1.80;;;;;;;18.29;100.00;100100.98;1745780;80;21558;-79
2022/09/30 07:41:08;;;;;;;4.08;1.60;;;;;;;18.30;100.00;100096.28;1745487;80;21172;-79
2022/09/30 07:44:20;;;;;;;2.37;1.50;;;;;;;18.34;100.00;100098.36;1743524;80;21185;-79
2022/09/30 07:47:25;;;;;;;2.20;1.42;;;;;;;18.35;100.00;100095.92;1747590;80;21211;-82
2022/09/30 07:50:31;;;;;;;2.05;1.50;;;;;;;18.38;100.00;100088.51;1707754;82;21180;-83
2022/09/30 07:53:37;;;;;;;3.95;1.90;;;;;;;18.55;100.00;100088.73;1712665;82;21538;-82
2022/09/30 07:56:44;;;;;;;2.87;1.98;;;;;;;18.67;100.00;100092.91;1705436;82;21702;-83
2022/09/30 07:59:50;;;;;;;5.60;2.35;;;;;;;18.88;100.00;100095.75;1715540;82;21552;-78
2022/09/30 08:02:59;;;;;;;9.00;3.83;;;;;;;18.94;100.00;100085.64;1715354;82;21172;-79
2022/09/30 08:06:06;;;;;;;7.60;4.17;;;;;;;19.05;100.00;100083.44;1747614;80;21366;-82
2022/09/30 08:09:12;;;;;;;6.30;4.62;;;;;;;19.07;100.00;100082.67;1708930;82;21187;-82
2022/09/30 08:12:20;;;;;;;7.87;5.90;;;;;;;19.19;100.00;100082.13;1724167;81;21806;-79
2022/09/30 08:15:25;;;;;;;9.58;6.10;;;;;;;19.14;100.00;100070.92;1726872;81;22291;-79
2022/09/30 08:18:34;;;;;;;14.75;8.45;;;;;;;19.27;100.00;100065.16;1722936;81;21779;-78
2022/09/30 08:21:43;;;;;;;11.90;8.20;;;;;;;19.44;100.00;100069.47;1706264;81;21183;-80
2022/09/30 08:24:47;;;;;;;9.00;6.92;;;;;;;19.51;100.00;100078.50;1747144;80;21197;-79
2022/09/30 08:27:53;;;;;;;12.73;9.30;;;;;;;19.68;100.00;100082.83;1718088;82;21219;-80
2022/09/30 08:30:58;;;;;;;18.17;10.20;;;;;;;19.76;100.00;100094.96;1745967;80;21223;-80
2022/09/30 08:34:07;;;;;;;15.03;10.63;;;;;;;19.74;100.00;100096.27;1741710;80;21214;-80
2022/09/30 08:37:12;;;;;;;20.05;11.63;;;;;;;20.13;100.00;100100.20;1723878;81;21879;-83
2022/09/30 08:40:25;;;;;;;20.60;11.45;;;;;;;20.21;100.00;100097.06;1713576;82;21197;-78
2022/09/30 08:43:47;;;;;;;20.02;13.58;;;;;;;20.29;100.00;100086.12;1709531;82;21702;-79
2022/09/30 08:47:42;;;;;;;19.57;14.53;;;;;;;20.35;100.00;100087.91;1709221;82;21512;-78
2022/09/30 08:51:31;;;;;;;23.73;14.47;;;;;;;20.57;100.00;100116.75;1712462;82;21610;-81
2022/09/30 08:54:42;;;;;;;27.37;16.97;;;;;;;20.79;100.00;100126.62;1665821;84;21785;-79
2022/09/30 08:57:50;;;;;;;;;;;;;;;20.68;100.00;100131.14;1695936;83;21199;-79
2022/09/30 09:01:01;;;;;;;42.23;26.90;;;;;;;20.71;100.00;100128.97;1720380;81;20205;-80
2022/09/30 09:04:08;;;;;;;48.33;25.97;;;;;;;20.59;100.00;100123.44;1708895;82;21208;-79
2022/09/30 09:07:46;;;;;;;60.40;34.13;;;;;;;20.48;100.00;100124.33;1705750;82;21793;-80
2022/09/30 09:10:54;;;;;;;48.28;29.82;;;;;;;20.38;100.00;100117.44;1708342;82;21197;-80
2022/09/30 09:14:10;;;;;;;44.80;25.82;;;;;;;20.26;100.00;100124.09;1731050;81;21223;-79
2022/09/30 09:17:38;;;;;;;53.05;27.65;;;;;;;20.30;100.00;100129.47;1720348;81;21223;-83
2022/09/30 09:21:03;;;;;;;55.45;29.02;;;;;;;20.23;100.00;100136.55;1749294;80;21520;-81
2022/09/30 09:23:57;;;;;;;45.23;27.40;;;;;;;20.22;100.00;100143.72;1708333;80;21233;-81
2022/09/30 09:26:44;;;;;;;44.33;27.35;;;;;;;20.20;100.00;100138.97;1744628;80;21164;-81
2022/09/30 09:30:01;;;;;;;44.15;28.05;;;;;;;20.11;100.00;100126.00;1712095;82;21802;-82
2022/09/30 09:33:28;;;;;;;51.98;28.02;;;;;;;20.05;100.00;100123.66;1745191;80;21176;-80
2022/09/30 09:36:41;;;;;;;44.08;27.82;;;;;;;20.13;100.00;100138.53;1752184;80;21531;-79
2022/09/30 09:40:06;;;;;;;45.12;24.35;;;;;;;20.19;100.00;100140.06;1741311;80;21172;-79
2022/09/30 09:43:23;;;;;;;44.73;25.57;;;;;;;20.15;100.00;100147.48;1745581;81;21216;-79
2022/09/30 09:46:48;;;;;;;54.23;26.77;;;;;;;20.05;100.00;100139.47;1750920;80;21153;-79
2022/09/30 09:49:54;;;;;;;49.42;27.35;;;;;;;20.08;100.00;100141.74;1720847;82;21227;-80
2022/09/30 09:53:26;;;;;;;41.08;23.85;;;;;;;20.06;100.00;100143.38;1748166;81;21179;-79
2022/09/30 09:56:36;;;;;;;45.75;24.65;;;;;;;20.09;100.00;100125.37;1749614;80;21193;-79
2022/09/30 09:59:40;;;;;;;;;;;;;;;20.23;100.00;100119.02;1753821;80;21148;-80
2022/09/30 10:02:46;;;;;;;53.17;26.07;;;;;;;20.24;100.00;100109.62;1722800;82;20249;-79
2022/09/30 10:05:54;;;;;;;42.53;25.52;;;;;;;20.11;100.00;100100.46;1751474;81;21162;-79
2022/09/30 10:09:03;;;;;;;42.08;25.50;;;;;;;20.05;100.00;100101.45;1719627;81;21246;-80
2022/09/30 10:12:19;;;;;;;48.45;26.17;;;;;;;20.08;100.00;100103.72;1726153;82;21228;-79
2022/09/30 10:15:29;;;;;;;31.33;20.55;;;;;;;20.10;100.00;100102.11;1734928;82;21709;-79
2022/09/30 10:18:42;;;;;;;34.10;21.17;;;;;;;20.14;100.00;100101.92;1750245;80;21197;-79
2022/09/30 10:21:48;;;;;;;41.18;25.62;;;;;;;20.21;100.00;100105.94;1725166;82;21147;-79
2022/09/30 10:24:55;;;;;;;35.20;22.60;;;;;;;20.26;100.00;100099.95;1721508;82;21195;-78
2022/09/30 10:28:10;;;;;;;39.42;20.57;;;;;;;20.15;100.00;100096.11;1721202;82;21622;-78
2022/09/30 10:31:21;;;;;;;35.95;22.95;;;;;;;20.12;100.00;100104.92;1752489;81;21197;-79
2022/09/30 10:34:46;;;;;;;36.33;23.05;;;;;;;20.02;100.00;100101.92;1751569;80;21700;-79
2022/09/30 10:37:59;;;;;;;41.68;25.72;;;;;;;19.99;100.00;100119.05;1752893;81;21176;-79
2022/09/30 10:41:05;;;;;;;36.70;21.85;;;;;;;20.16;100.00;100133.05;1721343;82;21240;-79
2022/09/30 10:44:13;;;;;;;39.48;23.50;;;;;;;20.21;100.00;100137.33;1723339;81;21191;-79
2022/09/30 10:47:28;;;;;;;39.90;24.30;;;;;;;20.14;100.00;100129.14;1707208;82;21231;-79
2022/09/30 10:50:34;;;;;;;36.80;22.15;;;;;;;20.17;100.00;100131.41;1754415;81;22158;-79
2022/09/30 10:53:42;;;;;;;42.53;24.45;;;;;;;20.28;100.00;100128.34;1748350;81;21175;-79
2022/09/30 10:56:50;;;;;;;40.63;22.75;;;;;;;20.29;100.00;100120.84;1732888;81;21231;-79
2022/09/30 11:00:01;;;;;;;38.48;24.43;;;;;;;20.36;100.00;100115.98;1730276;81;21163;-80
2022/09/30 11:03:19;;;;;;;40.12;25.82;;;;;;;20.29;100.00;100111.13;1726729;81;21518;-79
2022/09/30 11:06:23;;;;;;;38.60;24.60;;;;;;;20.25;100.00;100107.14;1729720;81;21396;-79
2022/09/30 11:09:52;;;;;;;40.12;20.65;;;;;;;20.44;100.00;100101.72;1726373;81;21704;-81
2022/09/30 11:13:30;;;;;;;33.38;21.97;;;;;;;20.49;100.00;100101.84;1729854;82;21224;-80
2022/09/30 11:16:39;;;;;;;36.25;21.93;;;;;;;20.34;100.00;100106.52;1729014;81;21181;-80
2022/09/30 11:20:08;;;;;;;34.33;20.70;;;;;;;20.57;100.00;100107.02;1730200;82;21165;-80
2022/09/30 11:23:31;;;;;;;42.38;21.23;;;;;;;20.79;100.00;100105.77;1733919;82;21213;-79
2022/09/30 11:27:11;;;;;;;33.53;21.12;;;;;;;21.04;100.00;100097.09;1740971;81;21772;-79
2022/09/30 11:31:05;;;;;;;27.00;17.20;;;;;;;21.28;100.00;100090.83;1719866;83;21230;-79
2022/09/30 11:34:23;;;;;;;21.87;13.78;;;;;;;21.39;100.00;100090.48;1724720;82;21236;-79
2022/09/30 11:38:23;;;;;;;22.27;11.08;;;;;;;21.73;100.00;100073.75;1719543;82;21234;-79
2022/09/30 11:41:36;;;;;;;13.28;10.00;;;;;;;21.84;100.00;100070.05;1721501;83;21812;-80
2022/09/30 11:44:43;;;;;;;19.57;9.45;;;;;;;22.07;100.00;100065.64;1731494;81;21782;-79
2022/09/30 11:48:02;;;;;;;11.65;8.15;;;;;;;22.24;100.00;100060.58;1747092;80;21203;-80
2022/09/30 11:51:32;;;;;;;11.47;8.23;;;;;;;22.28;100.00;100046.42;1741599;80;21166;-80
2022/09/30 11:54:50;;;;;;;14.83;7.83;;;;;;;22.40;100.00;100059.12;1745680;80;21219;-79
2022/09/30 11:58:14;;;;;;;11.12;7.05;;;;;;;22.29;100.00;100053.67;1718075;82;21216;-79
2022/09/30 12:01:32;;;;;;;13.95;6.92;;;;;;;22.39;100.00;100056.58;1714048;83;21212;-79
2022/09/30 12:04:47;;;;;;;12.70;5.90;;;;;;;22.41;97.46;100057.17;1726892;81;21164;-80
2022/09/30 12:08:12;;;;;;;16.25;6.95;;;;;;;22.56;94.68;100062.08;1733980;82;21760;-78
2022/09/30 12:11:22;;;;;;;12.15;6.12;;;;;;;22.49;93.53;100067.87;1731574;82;21193;-79
2022/09/30 12:14:49;;;;;;;12.58;6.15;;;;;;;22.36;93.50;100057.12;1751087;80;22246;-79
2022/09/30 12:17:58;;;;;;;13.65;6.08;;;;;;;22.47;91.24;100071.45;1743699;82;21195;-80
2022/09/30 12:21:19;;;;;;;9.58;5.67;;;;;;;22.33;90.55;100079.92;1745180;82;21206;-80
2022/09/30 12:24:45;;;;;;;9.60;5.10;;;;;;;22.14;89.53;100077.45;1742756;82;21190;-79
2022/09/30 12:30:15;;;;;;;9.00;5.37;;;;;;;21.99;89.22;100080.00;1752481;80;21196;-79
2022/09/30 12:31:26;;;;;;;7.92;4.55;;;;;;;21.98;89.35;100082.50;1751574;80;21678;-80
2022/09/30 12:35:04;;;;;;;9.18;4.25;;;;;;;21.86;89.03;100077.02;1750277;80;21819;-79
2022/09/30 12:38:43;;;;;;;11.18;4.80;;;;;;;21.85;87.86;100078.13;1748854;80;21181;-80
2022/09/30 12:42:28;;;;;;;10.40;4.95;;;;;;;21.83;87.12;100083.64;1721188;82;21178;-80
2022/09/30 12:46:06;;;;;;;11.70;4.55;;;;;;;21.78;86.63;100096.94;1728503;83;21877;-80
2022/09/30 12:49:16;;;;;;;5.83;3.85;;;;;;;21.72;86.34;100113.83;1720654;82;21193;-79
2022/09/30 12:52:24;;;;;;;9.08;4.03;;;;;;;21.64;86.64;100116.48;1724033;82;21164;-79
2022/09/30 12:55:40;;;;;;;7.70;3.90;;;;;;;21.64;86.37;100120.66;1729633;82;21212;-82
2022/09/30 12:58:56;;;;;;;6.95;4.08;;;;;;;21.68;85.60;100115.72;1730726;82;21209;-83
2022/09/30 13:02:03;;;;;;;6.62;3.77;;;;;;;21.61;85.17;100113.67;1748341;80;21187;-83
2022/09/30 13:05:38;;;;;;;6.75;4.42;;;;;;;21.52;85.87;100122.15;1750151;80;21208;-83
2022/09/30 13:09:04;;;;;;;11.43;4.17;;;;;;;21.42;86.12;100120.59;1709048;82;21553;-82
2022/09/30 13:12:14;;;;;;;6.72;3.80;;;;;;;21.30;86.66;100115.05;1716826;82;21191;-82
2022/09/30 13:15:40;;;;;;;5.72;3.75;;;;;;;21.21;87.10;100112.94;1713795;82;21174;-82
2022/09/30 13:18:51;;;;;;;6.90;4.30;;;;;;;21.09;87.78;100112.47;1747856;82;21187;-82
2022/09/30 13:21:57;;;;;;;6.92;3.80;;;;;;;21.08;87.37;100107.17;1722647;82;21792;-83
2022/09/30 13:25:10;;;;;;;7.78;4.58;;;;;;;21.01;86.94;100099.52;1717478;82;21275;-83
2022/09/30 13:28:21;;;;;;;7.30;4.10;;;;;;;20.90;87.31;100101.27;1731228;81;21863;-82
2022/09/30 13:31:22;;;;;;;7.35;4.72;;;;;;;20.91;87.33;100096.84;1746945;80;21698;-82
2022/09/30 13:34:32;;;;;;;10.43;4.55;;;;;;;20.99;87.17;100097.55;1755145;80;21193;-82
2022/09/30 13:37:37;;;;;;;8.55;5.00;;;;;;;20.90;87.61;100108.22;1739585;80;21649;-82
2022/09/30 13:40:29;;;;;;;6.15;4.67;;;;;;;20.85;89.07;100117.30;1709922;84;21786;-82
2022/09/30 13:43:45;;;;;;;12.80;5.33;;;;;;;20.77;89.90;100111.30;1727261;80;21255;-82
2022/09/30 13:46:58;;;;;;;8.95;5.40;;;;;;;20.75;90.15;100106.52;1724632;80;21187;-82
2022/09/30 13:50:27;;;;;;;10.68;4.85;;;;;;;20.77;89.91;100095.46;1710927;82;21197;-82
2022/09/30 13:53:45;;;;;;;11.80;5.17;;;;;;;20.78;89.30;100086.02;1744207;82;21156;-82
2022/09/30 13:56:52;;;;;;;9.20;4.50;;;;;;;20.65;89.36;100089.09;1711231;83;21201;-82
2022/09/30 14:00:15;;;;;;;8.75;4.65;;;;;;;20.63;89.77;100101.02;1744397;81;21814;-81
2022/09/30 14:03:56;;;;;;;6.05;4.58;;;;;;;20.73;89.74;100093.42;1744153;81;21208;-82
2022/09/30 14:07:36;;;;;;;6.65;4.65;;;;;;;20.81;89.96;100102.77;1715932;82;21790;-82
2022/09/30 14:11:26;;;;;;;6.03;4.10;;;;;;;20.95;90.00;100101.36;1745534;82;21179;-83
2022/09/30 14:14:53;;;;;;;9.78;4.80;;;;;;;21.02;89.93;100097.86;1736798;82;21822;-82
2022/09/30 14:18:29;;;;;;;8.50;4.45;;;;;;;21.05;90.42;100103.48;1739814;81;21166;-83
2022/09/30 14:21:55;;;;;;;15.90;4.97;;;;;;;21.00;90.46;100111.19;1712719;82;21181;-82
2022/09/30 14:25:02;;;;;;;9.73;5.97;;;;;;;20.97;91.80;100101.11;1723698;81;21188;-82
2022/09/30 14:28:15;;;;;;;8.45;6.08;;;;;;;20.89;92.69;100100.44;1718920;82;21176;-82
2022/09/30 14:31:21;;;;;;;17.57;9.20;;;;;;;20.95;92.99;100105.53;1720887;82;21183;-82
2022/09/30 14:34:26;;;;;;;24.85;14.18;;;;;;;20.90;94.72;100106.83;1721015;82;21152;-82
2022/09/30 14:38:29;;;;;;;27.02;15.03;;;;;;;20.85;94.80;100106.19;1721641;82;21164;-81
2022/09/30 14:41:37;;;;;;;29.55;14.30;;;;;;;20.72;95.04;100109.81;1722298;82;21145;-82
2022/09/30 14:44:42;;;;;;;25.68;15.10;;;;;;;20.65;95.75;100110.81;1720099;82;21196;-82
2022/09/30 14:47:52;;;;;;;37.28;14.15;;;;;;;20.57;96.31;100100.08;1720991;83;21212;-83
2022/09/30 14:51:11;;;;;;;35.73;17.35;;;;;;;20.79;95.70;100098.82;1723103;82;21530;-82
2022/09/30 14:54:33;;;;;;;29.67;15.53;;;;;;;20.63;97.22;100093.52;1719626;82;21145;-82
2022/09/30 14:57:37;;;;;;;25.50;12.25;;;;;;;20.57;98.53;100098.69;1717936;82;21227;-82
2022/09/30 15:00:44;;;;;;;28.35;13.68;;;;;;;20.46;100.00;100098.13;1728493;81;21485;-82
2022/09/30 15:04:09;;;;;;;31.95;15.00;;;;;;;20.37;100.00;100106.55;1752722;81;21180;-82
2022/09/30 15:07:18;;;;;;;34.33;15.45;;;;;;;20.33;100.00;100102.61;1751778;81;21292;-82
2022/09/30 15:10:28;;;;;;;31.40;14.70;;;;;;;20.36;100.00;100114.59;1739585;81;21811;-82
2022/09/30 15:13:36;;;;;;;27.02;14.47;;;;;;;20.14;100.00;100115.26;1751337;81;21176;-81
2022/09/30 15:16:54;;;;;;;25.17;12.13;;;;;;;20.21;100.00;100118.44;1727046;82;21467;-82
2022/09/30 15:20:02;;;;;;;21.97;10.23;;;;;;;20.20;100.00;100125.09;1730270;81;21733;-82
2022/09/30 15:23:10;;;;;;;15.88;8.83;;;;;;;20.01;100.00;100126.61;1730954;81;21211;-82
2022/09/30 15:26:18;;;;;;;16.35;8.83;;;;;;;20.05;100.00;100134.77;1754126;81;21156;-82
2022/09/30 15:29:24;;;;;;;17.90;8.10;;;;;;;19.93;100.00;100135.30;1752865;80;21765;-83
2022/09/30 15:32:33;;;;;;;15.85;7.97;;;;;;;19.83;100.00;100136.45;1716580;83;21272;-82
2022/09/30 15:35:39;;;;;;;13.53;7.55;;;;;;;19.82;100.00;100141.70;1737708;81;21172;-83
2022/09/30 15:38:46;;;;;;;13.35;6.80;;;;;;;19.77;100.00;100152.14;1755339;81;21250;-82
2022/09/30 15:41:53;;;;;;;15.50;5.80;;;;;;;19.85;100.00;100148.98;1751396;82;22098;-81
2022/09/30 15:45:01;;;;;;;11.60;5.65;;;;;;;19.74;100.00;100145.67;1722762;83;21215;-81
2022/09/30 15:48:15;;;;;;;8.23;5.42;;;;;;;19.69;100.00;100150.27;1750533;82;21227;-81
2022/09/30 15:51:47;;;;;;;11.20;5.25;;;;;;;19.55;100.00;100158.77;1748592;81;21184;-82
2022/09/30 15:54:54;;;;;;;7.87;4.92;;;;;;;19.36;100.00;100163.56;1750874;82;21156;-82
2022/09/30 15:58:01;;;;;;;10.40;5.22;;;;;;;19.40;100.00;100155.62;1734499;82;21199;-82
2022/09/30 16:01:22;;;;;;;10.40;4.92;;;;;;;19.40;100.00;100155.62;1750835;81;21757;-82
2022/09/30 16:04:23;;;;;;;7.25;4.53;;;;;;;19.35;100.00;100161.03;1735808;82;21212;-82
2022/09/30 16:07:37;;;;;;;11.53;5.10;;;;;;;19.26;100.00;100162.45;1735587;82;21235;-82
2022/09/30 16:10:45;;;;;;;10.05;4.55;;;;;;;19.26;100.00;100173.55;1736278;82;21162;-83